sensor_id;sensor_type;location;lat;lon;timestamp;P1;durP1;ratioP1;P2;durP2;ratioP2
70457;SDS011;57919;56.194;95.716;2023-04-24T00:04:25;15.03;;;4.93;;
70457;SDS011;57919;56.194;95.716;2023-04-24T00:14:27;15.37;;;6.13;;
70457;SDS011;57919;56.194;95.716;2023-04-24T00:24:28;11.10;;;4.03;;
70457;SDS011;57919;56.194;95.716;2023-04-24T00:34:32;8.33;;;3.73;;
70457;SDS011;57919;56.194;95.716;2023-04-24T00:44:34;14.10;;;5.27;;
70457;SDS011;57919;56.194;95.716;2023-04-24T00:54:55;6.97;;;2.37;;
70457;SDS011;57919;56.194;95.716;2023-04-24T01:04:57;14.63;;;5.03;;
70457;SDS011;57919;56.194;95.716;2023-04-24T01:14:59;18.77;;;5.93;;
70457;SDS011;57919;56.194;95.716;2023-04-24T01:25:01;9.57;;;3.43;;
70457;SDS011;57919;56.194;95.716;2023-04-24T01:35:06;8.73;;;3.20;;
70457;SDS011;57919;56.194;95.716;2023-04-24T01:45:10;14.23;;;6.60;;
70457;SDS011;57919;56.194;95.716;2023-04-24T01:55:14;33.93;;;15.83;;
70457;SDS011;57919;56.194;95.716;2023-04-24T02:05:16;11.68;;;4.53;;
70457;SDS011;57919;56.194;95.716;2023-04-24T02:15:17;15.97;;;7.80;;
70457;SDS011;57919;56.194;95.716;2023-04-24T02:25:19;32.23;;;15.60;;
70457;SDS011;57919;56.194;95.716;2023-04-24T02:35:22;9.20;;;4.38;;
70457;SDS011;57919;56.194;95.716;2023-04-24T02:45:23;12.83;;;3.50;;
70457;SDS011;57919;56.194;95.716;2023-04-24T02:55:25;9.65;;;5.03;;
70457;SDS011;57919;56.194;95.716;2023-04-24T03:05:27;10.83;;;3.00;;
70457;SDS011;57919;56.194;95.716;2023-04-24T03:15:29;7.07;;;3.03;;
70457;SDS011;57919;56.194;95.716;2023-04-24T03:25:31;7.97;;;2.88;;
70457;SDS011;57919;56.194;95.716;2023-04-24T03:35:33;8.43;;;3.33;;
70457;SDS011;57919;56.194;95.716;2023-04-24T03:45:38;5.47;;;2.28;;
70457;SDS011;57919;56.194;95.716;2023-04-24T03:55:41;8.17;;;2.77;;
70457;SDS011;57919;56.194;95.716;2023-04-24T04:05:44;3.70;;;1.13;;
70457;SDS011;57919;56.194;95.716;2023-04-24T04:15:46;39.53;;;26.52;;
70457;SDS011;57919;56.194;95.716;2023-04-24T04:25:48;5.63;;;2.90;;
70457;SDS011;57919;56.194;95.716;2023-04-24T04:35:53;7.82;;;2.97;;
70457;SDS011;57919;56.194;95.716;2023-04-24T04:46:00;78.70;;;36.60;;
70457;SDS011;57919;56.194;95.716;2023-04-24T04:56:19;19.30;;;8.03;;
70457;SDS011;57919;56.194;95.716;2023-04-24T05:06:22;7.55;;;2.10;;
70457;SDS011;57919;56.194;95.716;2023-04-24T05:16:24;8.27;;;2.87;;
70457;SDS011;57919;56.194;95.716;2023-04-24T05:26:29;8.70;;;2.38;;
70457;SDS011;57919;56.194;95.716;2023-04-24T05:36:33;7.67;;;2.97;;
70457;SDS011;57919;56.194;95.716;2023-04-24T05:46:35;4.33;;;1.50;;
70457;SDS011;57919;56.194;95.716;2023-04-24T05:56:36;4.30;;;1.50;;
70457;SDS011;57919;56.194;95.716;2023-04-24T06:06:40;9.27;;;2.63;;
70457;SDS011;57919;56.194;95.716;2023-04-24T06:16:43;5.90;;;1.85;;
70457;SDS011;57919;56.194;95.716;2023-04-24T06:27:02;3.50;;;1.43;;
70457;SDS011;57919;56.194;95.716;2023-04-24T06:37:04;5.10;;;1.53;;
70457;SDS011;57919;56.194;95.716;2023-04-24T06:47:10;6.53;;;2.17;;
70457;SDS011;57919;56.194;95.716;2023-04-24T06:57:13;4.33;;;2.00;;
70457;SDS011;57919;56.194;95.716;2023-04-24T07:07:17;5.53;;;1.55;;
70457;SDS011;57919;56.194;95.716;2023-04-24T07:17:18;3.97;;;1.20;;
70457;SDS011;57919;56.194;95.716;2023-04-24T10:41:27;356.63;;;103.80;;
70457;SDS011;57919;56.194;95.716;2023-04-24T10:51:51;23.17;;;6.20;;
70457;SDS011;57919;56.194;95.716;2023-04-24T11:01:56;92.63;;;30.73;;
70457;SDS011;57919;56.194;95.716;2023-04-24T11:22:16;44.50;;;12.70;;
70457;SDS011;57919;56.194;95.716;2023-04-24T11:32:26;51.03;;;16.23;;
70457;SDS011;57919;56.194;95.716;2023-04-24T11:42:35;98.80;;;42.00;;
70457;SDS011;57919;56.194;95.716;2023-04-24T11:52:42;192.63;;;73.87;;
70457;SDS011;57919;56.194;95.716;2023-04-24T12:02:46;118.03;;;41.67;;
70457;SDS011;57919;56.194;95.716;2023-04-24T12:12:49;87.50;;;32.00;;
70457;SDS011;57919;56.194;95.716;2023-04-24T12:22:53;76.63;;;29.60;;
70457;SDS011;57919;56.194;95.716;2023-04-24T12:32:57;85.17;;;33.43;;
70457;SDS011;57919;56.194;95.716;2023-04-24T12:43:00;86.13;;;35.30;;
70457;SDS011;57919;56.194;95.716;2023-04-24T12:53:02;110.37;;;44.37;;
70457;SDS011;57919;56.194;95.716;2023-04-24T13:03:04;65.40;;;21.67;;
70457;SDS011;57919;56.194;95.716;2023-04-24T13:13:06;77.78;;;27.08;;
70457;SDS011;57919;56.194;95.716;2023-04-24T13:23:08;422.53;;;207.10;;
70457;SDS011;57919;56.194;95.716;2023-04-24T13:33:10;368.77;;;154.27;;
70457;SDS011;57919;56.194;95.716;2023-04-24T13:43:12;375.30;;;146.13;;
70457;SDS011;57919;56.194;95.716;2023-04-24T13:53:14;328.73;;;127.20;;
70457;SDS011;57919;56.194;95.716;2023-04-24T14:03:16;284.95;;;121.63;;
70457;SDS011;57919;56.194;95.716;2023-04-24T14:13:18;397.50;;;165.50;;
70457;SDS011;57919;56.194;95.716;2023-04-24T14:23:21;360.67;;;152.50;;
70457;SDS011;57919;56.194;95.716;2023-04-24T14:33:23;296.53;;;124.43;;
70457;SDS011;57919;56.194;95.716;2023-04-24T14:43:25;215.00;;;80.90;;
70457;SDS011;57919;56.194;95.716;2023-04-24T14:53:27;299.90;;;104.80;;
70457;SDS011;57919;56.194;95.716;2023-04-24T15:03:29;303.77;;;109.50;;
70457;SDS011;57919;56.194;95.716;2023-04-24T15:13:32;183.40;;;69.73;;
70457;SDS011;57919;56.194;95.716;2023-04-24T15:23:34;119.37;;;49.30;;
70457;SDS011;57919;56.194;95.716;2023-04-24T15:33:35;124.87;;;48.50;;
70457;SDS011;57919;56.194;95.716;2023-04-24T15:43:37;162.05;;;61.08;;
70457;SDS011;57919;56.194;95.716;2023-04-24T15:53:42;150.00;;;55.50;;
70457;SDS011;57919;56.194;95.716;2023-04-24T16:03:44;108.63;;;43.03;;
70457;SDS011;57919;56.194;95.716;2023-04-24T16:13:46;126.63;;;49.70;;
70457;SDS011;57919;56.194;95.716;2023-04-24T16:23:48;163.27;;;57.00;;
70457;SDS011;57919;56.194;95.716;2023-04-24T16:33:50;116.40;;;41.05;;
70457;SDS011;57919;56.194;95.716;2023-04-24T16:43:53;80.57;;;30.17;;
70457;SDS011;57919;56.194;95.716;2023-04-24T16:53:55;110.00;;;34.93;;
70457;SDS011;57919;56.194;95.716;2023-04-24T17:03:57;56.10;;;20.63;;
70457;SDS011;57919;56.194;95.716;2023-04-24T17:13:59;40.47;;;14.07;;
70457;SDS011;57919;56.194;95.716;2023-04-24T17:24:01;17.42;;;7.53;;
70457;SDS011;57919;56.194;95.716;2023-04-24T17:34:02;24.87;;;9.80;;
70457;SDS011;57919;56.194;95.716;2023-04-24T17:44:04;34.80;;;12.63;;
70457;SDS011;57919;56.194;95.716;2023-04-24T17:54:06;32.40;;;11.63;;
70457;SDS011;57919;56.194;95.716;2023-04-24T18:04:08;21.07;;;8.27;;
70457;SDS011;57919;56.194;95.716;2023-04-24T18:14:10;28.35;;;9.10;;
70457;SDS011;57919;56.194;95.716;2023-04-24T18:24:12;70.93;;;19.83;;
70457;SDS011;57919;56.194;95.716;2023-04-24T18:34:14;52.97;;;18.70;;
70457;SDS011;57919;56.194;95.716;2023-04-24T18:44:16;20.57;;;6.73;;
70457;SDS011;57919;56.194;95.716;2023-04-24T18:54:18;19.77;;;5.10;;
70457;SDS011;57919;56.194;95.716;2023-04-24T19:04:20;8.75;;;2.45;;
70457;SDS011;57919;56.194;95.716;2023-04-24T19:14:22;9.63;;;2.97;;
70457;SDS011;57919;56.194;95.716;2023-04-24T19:24:24;9.30;;;3.23;;
70457;SDS011;57919;56.194;95.716;2023-04-24T19:34:28;11.40;;;3.63;;
70457;SDS011;57919;56.194;95.716;2023-04-24T19:44:32;5.37;;;1.57;;
70457;SDS011;57919;56.194;95.716;2023-04-24T19:54:33;12.27;;;3.35;;
70457;SDS011;57919;56.194;95.716;2023-04-24T20:04:35;26.50;;;10.03;;
70457;SDS011;57919;56.194;95.716;2023-04-24T20:14:37;10.13;;;2.83;;
70457;SDS011;57919;56.194;95.716;2023-04-24T20:24:39;6.13;;;2.00;;
70457;SDS011;57919;56.194;95.716;2023-04-24T20:34:41;5.50;;;1.70;;
70457;SDS011;57919;56.194;95.716;2023-04-24T20:44:43;4.00;;;1.20;;
70457;SDS011;57919;56.194;95.716;2023-04-24T20:54:46;4.67;;;1.40;;
70457;SDS011;57919;56.194;95.716;2023-04-24T21:04:48;7.57;;;1.73;;
70457;SDS011;57919;56.194;95.716;2023-04-24T21:14:50;4.97;;;1.15;;
70457;SDS011;57919;56.194;95.716;2023-04-24T21:24:51;2.63;;;0.63;;
70457;SDS011;57919;56.194;95.716;2023-04-24T21:34:53;4.95;;;1.35;;
70457;SDS011;57919;56.194;95.716;2023-04-24T21:44:56;11.73;;;3.00;;
70457;SDS011;57919;56.194;95.716;2023-04-24T21:54:57;10.20;;;3.07;;
70457;SDS011;57919;56.194;95.716;2023-04-24T22:04:59;5.07;;;1.60;;
70457;SDS011;57919;56.194;95.716;2023-04-24T22:15:04;5.67;;;1.80;;
70457;SDS011;57919;56.194;95.716;2023-04-24T22:25:07;8.70;;;2.88;;
70457;SDS011;57919;56.194;95.716;2023-04-24T22:35:09;6.40;;;1.97;;
70457;SDS011;57919;56.194;95.716;2023-04-24T22:45:11;6.13;;;1.50;;
70457;SDS011;57919;56.194;95.716;2023-04-24T22:55:13;9.35;;;2.00;;
70457;SDS011;57919;56.194;95.716;2023-04-24T23:05:15;4.77;;;1.40;;
70457;SDS011;57919;56.194;95.716;2023-04-24T23:15:17;6.53;;;1.40;;
70457;SDS011;57919;56.194;95.716;2023-04-24T23:25:19;5.10;;;1.50;;
70457;SDS011;57919;56.194;95.716;2023-04-24T23:35:20;6.30;;;1.90;;
70457;SDS011;57919;56.194;95.716;2023-04-24T23:45:23;9.93;;;3.38;;
70457;SDS011;57919;56.194;95.716;2023-04-24T23:55:24;23.23;;;6.43;;
